Time;durP1;ratioP1;P1;durP2;ratioP2;P2;SDS_P1;SDS_P2;PMS_P1;PMS_P2;Temp;Humidity;BMP_temperature;BMP_pressure;BME280_temperature;BME280_humidity;BME280_pressure;Samples;Min_cycle;Max_cycle;Signal;HPM_P1;HPM_P2
2022/08/31 00:05:59;;;;;;;839.03;498.00;;;;;;;;;;5111599;27;20392;-70
2022/08/31 00:08:26;;;;;;;834.72;484.10;;;;;;;;;;5110673;28;20032;-70
2022/08/31 00:10:53;;;;;;;825.67;474.00;;;;;;;;;;5111033;28;20023;-70
2022/08/31 00:13:20;;;;;;;844.33;512.97;;;;;;;;;;5110956;28;20027;-70
2022/08/31 00:16:01;;;;;;;8.80;5.50;;;;;;;;;;5111059;27;20113;-70
2022/08/31 00:18:27;;;;;;;10.00;5.50;;;;;;;;;;5111391;28;20019;-70
2022/08/31 00:22:45;;;;;;;13.20;6.30;;;;;;;;;;5111191;27;20597;-71
2022/08/31 00:25:12;;;;;;;9.10;6.55;;;;;;;;;;5111594;28;20106;-71
2022/08/31 00:27:38;;;;;;;9.10;6.40;;;;;;;;;;5111338;28;20035;-70
2022/08/31 00:32:50;;;;;;;8.98;6.15;;;;;;;;;;5111201;27;20988;-71
2022/08/31 00:36:26;;;;;;;8.77;5.60;;;;;;;;;;5110998;27;20466;-70
2022/08/31 00:38:53;;;;;;;10.63;6.03;;;;;;;;;;5111195;28;20550;-71
2022/08/31 00:42:12;;;;;;;10.38;5.97;;;;;;;;;;5111943;27;20753;-70
2022/08/31 00:46:15;;;;;;;10.52;6.10;;;;;;;;;;5111580;27;20400;-70
2022/08/31 00:50:11;;;;;;;12.32;6.78;;;;;;;;;;5111423;27;20789;-70
2022/08/31 00:52:39;;;;;;;9.07;5.47;;;;;;;;;;5110782;28;20063;-70
2022/08/31 00:55:05;;;;;;;9.75;6.47;;;;;;;;;;5110939;28;20023;-70
2022/08/31 00:57:33;;;;;;;9.25;5.68;;;;;;;;;;5110571;28;20024;-70
2022/08/31 01:00:01;;;;;;;11.05;5.47;;;;;;;;;;5110993;28;20464;-71
2022/08/31 01:02:27;;;;;;;10.40;5.22;;;;;;;;;;5111026;28;20094;-71
2022/08/31 01:04:53;;;;;;;7.93;4.93;;;;;;;;;;5110533;28;20472;-71
2022/08/31 01:09:15;;;;;;;8.77;5.10;;;;;;;;;;5111900;27;20422;-70
2022/08/31 01:11:50;;;;;;;8.50;5.50;;;;;;;;;;5110753;27;20850;-70
2022/08/31 01:14:17;;;;;;;10.80;6.50;;;;;;;;;;5111433;28;20441;-70
2022/08/31 01:17:24;;;;;;;8.60;5.68;;;;;;;;;;5173368;27;20117;-70
2022/08/31 01:19:50;;;;;;;8.82;5.57;;;;;;;;;;5151926;27;20029;-71
2022/08/31 01:22:29;;;;;;;8.75;5.53;;;;;;;;;;5152678;27;20098;-70
2022/08/31 01:24:56;;;;;;;8.88;5.88;;;;;;;;;;5152510;27;20019;-71
2022/08/31 01:27:24;;;;;;;9.75;6.13;;;;;;;;;;5151959;27;20099;-71
2022/08/31 01:29:50;;;;;;;9.13;6.28;;;;;;;;;;5152152;27;20019;-71
2022/08/31 01:32:16;;;;;;;12.25;6.70;;;;;;;;;;5152131;27;20031;-71
2022/08/31 01:35:53;;;;;;;11.27;6.60;;;;;;;;;;5111256;27;20520;-70
2022/08/31 01:39:39;;;;;;;14.35;6.63;;;;;;;;;;5111734;27;20524;-70
2022/08/31 01:42:06;;;;;;;11.93;6.30;;;;;;;;;;5111147;28;20053;-70
2022/08/31 01:44:32;;;;;;;10.68;6.90;;;;;;;;;;5111051;28;20024;-70
2022/08/31 01:46:58;;;;;;;10.52;6.03;;;;;;;;;;5110910;28;20024;-70
2022/08/31 01:49:24;;;;;;;9.45;6.45;;;;;;;;;;5126821;28;20050;-71
2022/08/31 01:52:20;;;;;;;8.68;5.75;;;;;;;;;;5111764;27;20400;-70
2022/08/31 01:54:47;;;;;;;9.30;6.03;;;;;;;;;;5110765;28;20024;-70
2022/08/31 01:57:14;;;;;;;9.93;6.75;;;;;;;;;;5111093;28;20031;-70
2022/08/31 01:59:41;;;;;;;10.50;6.32;;;;;;;;;;5111239;28;20052;-70
2022/08/31 02:02:07;;;;;;;9.75;5.97;;;;;;;;;;5110577;28;20020;-70
2022/08/31 02:04:33;;;;;;;13.48;6.65;;;;;;;;;;5110994;28;20052;-70
2022/08/31 02:07:00;;;;;;;11.75;7.30;;;;;;;;;;5110918;28;20444;-70
2022/08/31 02:09:26;;;;;;;11.95;7.75;;;;;;;;;;5110571;28;20103;-70
2022/08/31 02:12:09;;;;;;;12.10;7.55;;;;;;;;;;5111244;27;20389;-70
2022/08/31 02:14:36;;;;;;;12.75;7.93;;;;;;;;;;5111274;28;20032;-70
2022/08/31 02:18:02;;;;;;;12.40;8.43;;;;;;;;;;5070653;28;20894;-70
2022/08/31 02:20:28;;;;;;;11.52;8.48;;;;;;;;;;5070555;28;20060;-70
2022/08/31 02:22:54;;;;;;;12.60;8.25;;;;;;;;;;5070100;28;20020;-70
2022/08/31 02:25:21;;;;;;;11.95;7.97;;;;;;;;;;5070465;28;20033;-70
2022/08/31 02:28:23;;;;;;;13.70;8.95;;;;;;;;;;5111817;27;20953;-70
2022/08/31 02:33:16;;;;;;;11.30;7.40;;;;;;;;;;5111292;27;20392;-70
2022/08/31 02:35:42;;;;;;;12.15;7.78;;;;;;;;;;5111214;28;20031;-70
2022/08/31 02:41:58;;;;;;;12.85;8.32;;;;;;;;;;5111284;27;20400;-70
2022/08/31 02:44:24;;;;;;;12.35;8.18;;;;;;;;;;5111020;28;20057;-70
2022/08/31 02:48:51;;;;;;;13.70;7.78;;;;;;;;;;5111930;27;20392;-70
2022/08/31 02:53:42;;;;;;;13.88;9.30;;;;;;;;;;5111266;27;20916;-70
2022/08/31 02:58:53;;;;;;;12.40;8.35;;;;;;;;;;5110883;27;20380;-71
2022/08/31 03:01:20;;;;;;;10.75;7.75;;;;;;;;;;5111412;28;20032;-71
2022/08/31 03:05:09;;;;;;;10.40;7.35;;;;;;;;;;5111213;27;20423;-71
2022/08/31 03:08:19;;;;;;;13.93;7.85;;;;;;;;;;5111327;27;20385;-70
2022/08/31 03:10:46;;;;;;;12.82;8.68;;;;;;;;;;5111121;28;20028;-70
2022/08/31 03:13:59;;;;;;;14.10;8.60;;;;;;;;;;5111548;27;20949;-71
2022/08/31 03:16:26;;;;;;;13.48;8.85;;;;;;;;;;5111705;28;20361;-71
2022/08/31 03:18:52;;;;;;;11.95;8.00;;;;;;;;;;5110650;28;20016;-71
2022/08/31 03:22:33;;;;;;;13.10;9.50;;;;;;;;;;5111808;27;20396;-70
2022/08/31 03:24:59;;;;;;;14.18;9.32;;;;;;;;;;5109824;28;20032;-71
2022/08/31 03:27:29;;;;;;;11.70;8.07;;;;;;;;;;5110629;28;20103;-70
2022/08/31 03:29:55;;;;;;;14.45;9.45;;;;;;;;;;5111018;28;20039;-70
2022/08/31 03:32:49;;;;;;;12.13;9.05;;;;;;;;;;5110946;27;20458;-71
2022/08/31 03:35:16;;;;;;;13.65;9.90;;;;;;;;;;5109856;28;20039;-71
2022/08/31 03:37:43;;;;;;;15.10;9.60;;;;;;;;;;5111344;28;20361;-71
2022/08/31 03:41:02;;;;;;;13.45;9.57;;;;;;;;;;5110827;27;20427;-71
2022/08/31 03:43:28;;;;;;;13.32;9.60;;;;;;;;;;5109790;28;20032;-70
2022/08/31 03:50:45;;;;;;;15.70;9.93;;;;;;;;;;5111416;27;20434;-70
2022/08/31 03:53:11;;;;;;;16.58;10.57;;;;;;;;;;5126930;28;20514;-70
2022/08/31 03:55:47;;;;;;;13.40;9.95;;;;;;;;;;5111764;27;20397;-71
2022/08/31 03:58:13;;;;;;;14.77;10.25;;;;;;;;;;5111200;28;20024;-72
2022/08/31 04:01:46;;;;;;;13.70;9.18;;;;;;;;;;5110982;27;20435;-71
2022/08/31 04:05:28;;;;;;;15.40;9.93;;;;;;;;;;5111489;27;20787;-71
2022/08/31 04:07:54;;;;;;;13.75;9.35;;;;;;;;;;5110712;28;20476;-70
2022/08/31 04:10:21;;;;;;;14.82;10.27;;;;;;;;;;5109798;28;20483;-71
2022/08/31 04:12:48;;;;;;;15.10;9.80;;;;;;;;;;5111086;28;20035;-71
2022/08/31 04:15:14;;;;;;;12.00;8.18;;;;;;;;;;5110502;28;20388;-71
2022/08/31 04:19:16;;;;;;;15.48;10.27;;;;;;;;;;5111945;27;20419;-71
2022/08/31 04:21:43;;;;;;;16.23;10.98;;;;;;;;;;5109618;28;20476;-71
2022/08/31 04:24:09;;;;;;;14.63;8.88;;;;;;;;;;5111150;28;20035;-71
2022/08/31 04:26:36;;;;;;;13.13;8.75;;;;;;;;;;5111023;28;20031;-71
2022/08/31 04:29:54;;;;;;;12.55;8.40;;;;;;;;;;5110900;27;20439;-70
2022/08/31 04:32:21;;;;;;;12.00;8.30;;;;;;;;;;5111094;28;20020;-71
2022/08/31 04:34:47;;;;;;;14.90;9.48;;;;;;;;;;5110960;28;20456;-70
2022/08/31 04:39:02;;;;;;;12.98;8.40;;;;;;;;;;5111450;27;20385;-71
2022/08/31 04:43:02;;;;;;;12.25;9.00;;;;;;;;;;5111214;27;20392;-71
2022/08/31 04:46:41;;;;;;;15.75;9.27;;;;;;;;;;5111843;27;20393;-70
2022/08/31 04:49:08;;;;;;;17.02;10.38;;;;;;;;;;5111507;28;20054;-70
2022/08/31 04:54:00;;;;;;;13.90;9.13;;;;;;;;;;5111310;27;20723;-70
2022/08/31 04:58:19;;;;;;;13.27;9.88;;;;;;;;;;5110857;27;20839;-70
2022/08/31 05:04:48;;;;;;;15.93;11.07;;;;;;;;;;5111228;27;20397;-71
2022/08/31 05:08:26;;;;;;;17.75;13.00;;;;;;;;;;5111648;27;20808;-71
2022/08/31 05:12:38;;;;;;;15.18;9.80;;;;;;;;;;5110945;27;20703;-71
2022/08/31 05:15:05;;;;;;;16.83;10.38;;;;;;;;;;5111330;28;20024;-72
2022/08/31 05:17:31;;;;;;;14.52;9.25;;;;;;;;;;5109883;28;20020;-72
2022/08/31 05:21:16;;;;;;;10.30;7.70;;;;;;;;;;5108455;27;20453;-71
2022/08/31 05:25:24;;;;;;;17.48;9.43;;;;;;;;;;5110320;27;20414;-70
2022/08/31 05:29:46;;;;;;;11.73;7.80;;;;;;;;;;5110672;27;20450;-70
2022/08/31 05:34:22;;;;;;;10.10;7.45;;;;;;;;;;5070496;28;20483;-71
2022/08/31 05:36:50;;;;;;;11.88;7.50;;;;;;;;;;5070431;28;20029;-71
2022/08/31 05:39:16;;;;;;;11.30;7.50;;;;;;;;;;5068539;28;20029;-71
2022/08/31 05:41:44;;;;;;;11.48;7.90;;;;;;;;;;5070324;28;20029;-70
2022/08/31 05:44:10;;;;;;;11.30;7.55;;;;;;;;;;5070514;28;20048;-72
2022/08/31 05:47:37;;;;;;;16.77;8.65;;;;;;;;;;5090900;27;20451;-71
2022/08/31 05:52:01;;;;;;;11.38;7.03;;;;;;;;;;5111049;27;20397;-70
2022/08/31 05:54:27;;;;;;;9.98;6.70;;;;;;;;;;5109262;28;20067;-71
2022/08/31 05:56:54;;;;;;;14.52;7.55;;;;;;;;;;5110561;28;20578;-71
2022/08/31 05:59:20;;;;;;;12.73;8.68;;;;;;;;;;5099744;28;20115;-74
2022/08/31 06:03:44;;;;;;;13.85;9.25;;;;;;;;;;5110292;27;20442;-74
2022/08/31 06:06:11;;;;;;;16.42;9.25;;;;;;;;;;5110484;28;20020;-74
2022/08/31 06:08:38;;;;;;;15.38;8.63;;;;;;;;;;5108569;28;20379;-74
2022/08/31 06:11:05;;;;;;;12.00;7.53;;;;;;;;;;5111991;28;20099;-75
2022/08/31 06:13:52;;;;;;;10.57;8.02;;;;;;;;;;5110989;27;20310;-77
2022/08/31 06:16:18;;;;;;;12.82;8.43;;;;;;;;;;5110557;28;20028;-77
2022/08/31 06:18:49;;;;;;;20.08;17.95;;;;;;;;;;5109171;28;20074;-76
2022/08/31 06:21:17;;;;;;;17.90;10.10;;;;;;;;;;5087450;28;20036;-76
2022/08/31 06:23:43;;;;;;;16.65;8.73;;;;;;;;;;5099334;28;20020;-76
2022/08/31 06:26:12;;;;;;;11.98;7.95;;;;;;;;;;5092202;28;20103;-77
2022/08/31 06:28:39;;;;;;;11.57;7.93;;;;;;;;;;5089777;28;20017;-78
2022/08/31 06:35:44;;;;;;;13.57;7.28;;;;;;;;;;5110686;27;20401;-80
2022/08/31 06:38:10;;;;;;;13.07;8.00;;;;;;;;;;5111211;28;20115;-76
2022/08/31 06:40:36;;;;;;;15.95;7.97;;;;;;;;;;5109577;28;20543;-80
2022/08/31 06:43:03;;;;;;;12.70;8.40;;;;;;;;;;5110572;28;20060;-76
2022/08/31 06:48:24;;;;;;;10.77;8.05;;;;;;;;;;5100743;27;20437;-76
2022/08/31 06:50:57;;;;;;;12.60;8.15;;;;;;;;;;5105841;28;20459;-73
2022/08/31 06:53:23;;;;;;;;;;;;;;;;;;5089577;28;20341;-78
2022/08/31 06:55:49;;;;;;;12.73;8.80;;;;;;;;;;5088138;28;19910;-74
2022/08/31 06:58:15;;;;;;;13.18;9.43;;;;;;;;;;5089263;28;20028;-81
2022/08/31 07:00:41;;;;;;;13.38;8.90;;;;;;;;;;5088228;28;20024;-75
2022/08/31 07:03:23;;;;;;;10.90;8.63;;;;;;;;;;5088128;28;20047;-75
2022/08/31 07:06:36;;;;;;;14.15;9.23;;;;;;;;;;5103951;27;20397;-76
2022/08/31 07:09:05;;;;;;;14.32;9.48;;;;;;;;;;5097649;28;20111;-75
2022/08/31 07:11:35;;;;;;;11.13;8.25;;;;;;;;;;5085086;28;20024;-76
2022/08/31 07:14:01;;;;;;;13.90;9.38;;;;;;;;;;5099202;28;20056;-75
2022/08/31 07:16:27;;;;;;;36.85;16.00;;;;;;;;;;5109284;28;20031;-75
2022/08/31 07:18:54;;;;;;;18.23;11.38;;;;;;;;;;5107040;28;20019;-79
2022/08/31 07:21:25;;;;;;;15.40;10.68;;;;;;;;;;5095429;28;20043;-73
2022/08/31 07:23:51;;;;;;;13.73;10.43;;;;;;;;;;5088883;28;20028;-74
2022/08/31 07:26:23;;;;;;;13.80;10.25;;;;;;;;;;5084426;28;20055;-72
2022/08/31 07:28:51;;;;;;;17.50;10.55;;;;;;;;;;5113375;28;20031;-72
2022/08/31 07:31:18;;;;;;;20.83;11.52;;;;;;;;;;5106191;28;20498;-73
2022/08/31 07:33:45;;;;;;;16.48;10.25;;;;;;;;;;5106463;28;20582;-74
2022/08/31 07:36:12;;;;;;;17.52;11.38;;;;;;;;;;5106817;28;20482;-73
2022/08/31 07:44:10;;;;;;;32.47;12.75;;;;;;;;;;5089449;28;20098;-74
2022/08/31 07:46:37;;;;;;;23.48;13.15;;;;;;;;;;5086059;28;20036;-74
2022/08/31 07:49:11;;;;;;;30.50;13.85;;;;;;;;;;5085624;28;20139;-74
2022/08/31 07:51:42;;;;;;;23.85;11.45;;;;;;;;;;5084923;28;20451;-76
2022/08/31 07:54:09;;;;;;;26.13;11.85;;;;;;;;;;5098598;28;20027;-76
2022/08/31 07:56:36;;;;;;;18.60;12.27;;;;;;;;;;5104914;28;20024;-76
2022/08/31 08:00:29;;;;;;;28.15;11.65;;;;;;;;;;5086666;27;20492;-73
2022/08/31 08:03:39;;;;;;;23.90;12.02;;;;;;;;;;5060925;28;20431;-73
2022/08/31 08:06:32;;;;;;;23.05;11.77;;;;;;;;;;5107534;27;20835;-70
2022/08/31 08:09:05;;;;;;;20.02;12.05;;;;;;;;;;5103780;28;20024;-73
2022/08/31 08:11:32;;;;;;;14.10;10.80;;;;;;;;;;5104491;28;20076;-72
2022/08/31 08:13:58;;;;;;;16.92;12.60;;;;;;;;;;5103933;28;20024;-73
2022/08/31 08:16:24;;;;;;;16.27;11.93;;;;;;;;;;5104197;28;20020;-73
2022/08/31 08:18:51;;;;;;;14.88;11.30;;;;;;;;;;5105614;28;20431;-71
2022/08/31 08:21:17;;;;;;;16.33;11.43;;;;;;;;;;5105029;28;20020;-72
2022/08/31 08:25:50;;;;;;;16.65;12.15;;;;;;;;;;5067756;28;20446;-73
2022/08/31 08:28:18;;;;;;;14.80;11.23;;;;;;;;;;5067682;28;20033;-73
2022/08/31 08:30:45;;;;;;;15.65;10.73;;;;;;;;;;5067888;28;20044;-72
2022/08/31 08:33:12;;;;;;;18.48;12.73;;;;;;;;;;5068103;28;20049;-74
2022/08/31 08:35:39;;;;;;;16.30;10.77;;;;;;;;;;5067614;28;20547;-74
2022/08/31 08:38:06;;;;;;;15.05;11.65;;;;;;;;;;5069025;28;20072;-73
2022/08/31 08:40:43;;;;;;;15.52;11.15;;;;;;;;;;5069922;28;20047;-75
2022/08/31 08:43:10;;;;;;;17.42;10.95;;;;;;;;;;5066248;28;20025;-75
2022/08/31 08:45:37;;;;;;;13.07;9.75;;;;;;;;;;5067976;28;20039;-76
2022/08/31 08:48:10;;;;;;;13.57;10.15;;;;;;;;;;5068794;28;20032;-75
2022/08/31 08:50:37;;;;;;;15.88;11.40;;;;;;;;;;5070045;28;20029;-76
2022/08/31 08:53:05;;;;;;;19.63;12.70;;;;;;;;;;5069228;28;20101;-78
2022/08/31 08:57:51;;;;;;;17.67;11.32;;;;;;;;;;5117500;27;20121;-77
2022/08/31 09:00:17;;;;;;;20.00;11.98;;;;;;;;;;5110731;28;20103;-77
2022/08/31 09:02:56;;;;;;;20.90;13.35;;;;;;;;;;5110782;28;20047;-75
2022/08/31 09:05:33;;;;;;;17.05;10.85;;;;;;;;;;5110871;28;20020;-78
2022/08/31 09:08:00;;;;;;;14.13;10.15;;;;;;;;;;5111364;28;20028;-78
2022/08/31 09:11:05;;;;;;;13.40;8.82;;;;;;;;;;5109172;28;20027;-74
2022/08/31 09:13:31;;;;;;;12.38;8.63;;;;;;;;;;5028761;28;20363;-76
2022/08/31 09:16:04;;;;;;;11.95;8.85;;;;;;;;;;5027244;28;20109;-74
2022/08/31 09:18:49;;;;;;;12.73;8.98;;;;;;;;;;5069388;28;20555;-76
2022/08/31 09:21:28;;;;;;;12.85;9.32;;;;;;;;;;5110027;28;20024;-78
2022/08/31 09:23:54;;;;;;;10.93;8.15;;;;;;;;;;5112176;28;20023;-80
2022/08/31 09:26:26;;;;;;;13.57;8.90;;;;;;;;;;5113972;28;20421;-74
2022/08/31 09:28:53;;;;;;;15.48;9.48;;;;;;;;;;5111696;28;20051;-74
2022/08/31 09:31:33;;;;;;;16.88;9.80;;;;;;;;;;5113506;28;20081;-77
2022/08/31 09:34:00;;;;;;;13.18;8.77;;;;;;;;;;5108111;28;20024;-77
2022/08/31 09:36:32;;;;;;;12.77;8.27;;;;;;;;;;5108985;28;20064;-76
2022/08/31 09:39:13;;;;;;;11.82;8.93;;;;;;;;;;5105257;28;20666;-75
2022/08/31 09:41:39;;;;;;;10.52;8.27;;;;;;;;;;5085310;28;20021;-75
2022/08/31 09:44:20;;;;;;;14.88;8.57;;;;;;;;;;5086824;28;20665;-73
2022/08/31 09:46:48;;;;;;;11.23;7.75;;;;;;;;;;5105871;28;20020;-78
2022/08/31 09:49:21;;;;;;;11.68;8.43;;;;;;;;;;5107873;28;20031;-78
2022/08/31 09:51:48;;;;;;;11.63;8.35;;;;;;;;;;5108984;28;20069;-79
2022/08/31 09:57:08;;;;;;;12.95;7.82;;;;;;;;;;5084861;28;20052;-77
2022/08/31 09:59:42;;;;;;;11.55;8.13;;;;;;;;;;5108312;28;20064;-76
2022/08/31 10:02:20;;;;;;;12.27;7.25;;;;;;;;;;5108847;28;20019;-78
2022/08/31 10:04:53;;;;;;;10.07;7.22;;;;;;;;;;5108681;28;20016;-76
2022/08/31 10:07:20;;;;;;;10.73;6.97;;;;;;;;;;5105883;28;20103;-75
2022/08/31 10:09:53;;;;;;;13.18;7.03;;;;;;;;;;5094197;28;20114;-76
2022/08/31 10:12:43;;;;;;;14.43;7.68;;;;;;;;;;5095517;28;20031;-78
2022/08/31 10:15:11;;;;;;;11.07;6.22;;;;;;;;;;5084484;28;20064;-76
2022/08/31 10:17:39;;;;;;;10.88;7.28;;;;;;;;;;5092564;28;20044;-73
2022/08/31 10:20:08;;;;;;;11.00;7.03;;;;;;;;;;5093681;28;20056;-75
2022/08/31 10:22:40;;;;;;;13.82;6.75;;;;;;;;;;5093951;28;20046;-77
2022/08/31 10:25:13;;;;;;;9.23;6.20;;;;;;;;;;5094098;28;20031;-77
2022/08/31 10:27:42;;;;;;;17.52;7.68;;;;;;;;;;5093699;28;20171;-79
2022/08/31 10:30:15;;;;;;;11.32;7.25;;;;;;;;;;5094030;28;20021;-73
2022/08/31 10:32:45;;;;;;;9.35;6.93;;;;;;;;;;5094765;28;20375;-77
2022/08/31 10:35:23;;;;;;;12.25;7.97;;;;;;;;;;5095564;28;20484;-77
2022/08/31 10:37:53;;;;;;;9.73;6.80;;;;;;;;;;5095733;28;20036;-78
2022/08/31 10:40:24;;;;;;;12.48;6.97;;;;;;;;;;5095799;28;20016;-75
2022/08/31 10:42:58;;;;;;;10.27;7.13;;;;;;;;;;5095386;28;20028;-76
2022/08/31 10:45:25;;;;;;;10.55;6.75;;;;;;;;;;5094805;28;20376;-74
2022/08/31 10:47:53;;;;;;;9.07;6.93;;;;;;;;;;5094940;28;20353;-77
2022/08/31 10:50:28;;;;;;;13.20;8.18;;;;;;;;;;5094008;28;20028;-76
2022/08/31 10:53:04;;;;;;;15.35;7.88;;;;;;;;;;5093210;28;20039;-79
2022/08/31 10:55:50;;;;;;;11.23;8.13;;;;;;;;;;5092754;28;20051;-76
2022/08/31 10:58:24;;;;;;;14.55;7.90;;;;;;;;;;5093255;28;20024;-72
2022/08/31 11:00:59;;;;;;;12.38;7.97;;;;;;;;;;5091288;28;20045;-75
2022/08/31 11:03:35;;;;;;;11.50;7.32;;;;;;;;;;5085835;28;20024;-76
2022/08/31 11:06:01;;;;;;;10.68;7.70;;;;;;;;;;5091440;28;20081;-77
2022/08/31 11:08:48;;;;;;;11.18;7.85;;;;;;;;;;5089258;28;20541;-81
2022/08/31 11:11:30;;;;;;;12.68;7.63;;;;;;;;;;5090679;28;20016;-78
2022/08/31 11:14:19;;;;;;;17.83;9.55;;;;;;;;;;5091233;28;20107;-78
2022/08/31 11:16:45;;;;;;;13.45;8.68;;;;;;;;;;5091922;28;20809;-77
2022/08/31 11:19:29;;;;;;;12.20;8.05;;;;;;;;;;5091034;28;20035;-81
2022/08/31 11:21:55;;;;;;;10.93;8.63;;;;;;;;;;5090320;28;20035;-77
2022/08/31 11:24:27;;;;;;;11.85;9.38;;;;;;;;;;5090664;28;20573;-77
2022/08/31 11:26:59;;;;;;;13.40;10.02;;;;;;;;;;5091669;28;20024;-78
2022/08/31 11:29:25;;;;;;;;;;;;;;;;;;5091430;28;20496;-72
2022/08/31 11:31:53;;;;;;;11.90;8.50;;;;;;;;;;5089012;28;20356;-72
2022/08/31 11:34:28;;;;;;;11.02;8.13;;;;;;;;;;5090286;28;20174;-74
2022/08/31 11:36:59;;;;;;;10.70;8.13;;;;;;;;;;5089638;28;20028;-74
2022/08/31 11:39:34;;;;;;;11.70;8.10;;;;;;;;;;5091175;28;20529;-72
2022/08/31 11:42:19;;;;;;;9.73;7.10;;;;;;;;;;5084087;28;20032;-73
2022/08/31 11:44:46;;;;;;;10.65;8.10;;;;;;;;;;5070559;28;20821;-72
2022/08/31 11:47:14;;;;;;;10.98;7.78;;;;;;;;;;5081870;28;20023;-75
2022/08/31 11:49:47;;;;;;;13.20;7.53;;;;;;;;;;5092771;28;20020;-74
2022/08/31 11:52:29;;;;;;;11.43;7.50;;;;;;;;;;5092862;28;20016;-78
2022/08/31 11:54:58;;;;;;;11.02;8.43;;;;;;;;;;5093356;28;20020;-74
2022/08/31 11:57:25;;;;;;;11.70;7.28;;;;;;;;;;5093380;28;20488;-71
2022/08/31 11:59:52;;;;;;;12.45;8.25;;;;;;;;;;5093165;28;20028;-74
2022/08/31 12:02:21;;;;;;;10.85;7.43;;;;;;;;;;5093846;28;20027;-74
2022/08/31 12:04:56;;;;;;;10.55;7.88;;;;;;;;;;5093896;28;20024;-74
2022/08/31 12:07:39;;;;;;;10.18;7.57;;;;;;;;;;5090985;28;20039;-74
2022/08/31 12:10:18;;;;;;;12.80;7.68;;;;;;;;;;5093917;28;20523;-74
2022/08/31 12:12:54;;;;;;;15.75;9.00;;;;;;;;;;5092053;28;20032;-75
2022/08/31 12:15:23;;;;;;;11.27;7.30;;;;;;;;;;5091514;28;20024;-75
2022/08/31 12:18:08;;;;;;;11.48;8.07;;;;;;;;;;5091644;28;20484;-75
2022/08/31 12:23:44;;;;;;;10.60;7.60;;;;;;;;;;5092021;28;20028;-75
2022/08/31 12:26:23;;;;;;;11.02;6.97;;;;;;;;;;5090626;28;20024;-74
2022/08/31 12:28:49;;;;;;;10.48;7.20;;;;;;;;;;5091645;28;20020;-72
2022/08/31 12:31:17;;;;;;;11.40;7.82;;;;;;;;;;5090725;28;20035;-72
2022/08/31 12:34:02;;;;;;;9.65;7.00;;;;;;;;;;5091264;28;20028;-72
2022/08/31 12:36:29;;;;;;;9.38;7.07;;;;;;;;;;5091931;28;20027;-72
2022/08/31 12:39:06;;;;;;;11.23;8.02;;;;;;;;;;5093332;28;20030;-72
2022/08/31 12:41:33;;;;;;;10.45;7.95;;;;;;;;;;5091523;28;20024;-70
2022/08/31 12:43:59;;;;;;;14.20;8.30;;;;;;;;;;5091922;28;20380;-72
2022/08/31 12:46:28;;;;;;;16.13;9.35;;;;;;;;;;5091750;28;20088;-71
2022/08/31 12:49:15;;;;;;;11.63;7.93;;;;;;;;;;5090630;28;20031;-71
2022/08/31 12:51:46;;;;;;;13.52;7.60;;;;;;;;;;5090081;28;20016;-71
2022/08/31 12:54:30;;;;;;;10.05;7.53;;;;;;;;;;5091231;28;20413;-71
2022/08/31 12:56:57;;;;;;;9.70;7.47;;;;;;;;;;5091284;28;20043;-71
2022/08/31 12:59:59;;;;;;;11.70;7.32;;;;;;;;;;5092203;28;20047;-70
2022/08/31 13:02:25;;;;;;;12.32;7.88;;;;;;;;;;5030258;28;20417;-70
2022/08/31 13:04:52;;;;;;;12.05;7.97;;;;;;;;;;5081011;28;20032;-71
2022/08/31 13:07:19;;;;;;;11.90;8.98;;;;;;;;;;5093111;28;20383;-73
2022/08/31 13:09:45;;;;;;;11.50;8.35;;;;;;;;;;5091296;28;20415;-74
2022/08/31 13:12:20;;;;;;;12.57;8.15;;;;;;;;;;5093349;28;20368;-75
2022/08/31 13:14:46;;;;;;;12.55;7.97;;;;;;;;;;5093378;28;20020;-74
2022/08/31 13:17:14;;;;;;;12.57;9.10;;;;;;;;;;5091384;28;20395;-72
2022/08/31 13:19:46;;;;;;;12.80;8.20;;;;;;;;;;5093069;28;20020;-74
2022/08/31 13:22:15;;;;;;;13.20;8.30;;;;;;;;;;5093170;28;20016;-74
2022/08/31 13:24:42;;;;;;;16.38;9.27;;;;;;;;;;5092089;28;20099;-75
2022/08/31 13:27:22;;;;;;;12.88;9.25;;;;;;;;;;5092327;28;20027;-74
2022/08/31 13:29:49;;;;;;;11.15;8.52;;;;;;;;;;5072606;28;20428;-75
2022/08/31 13:32:21;;;;;;;12.77;8.70;;;;;;;;;;5091588;28;20024;-75
2022/08/31 13:34:48;;;;;;;14.32;8.73;;;;;;;;;;5092774;28;20052;-76
2022/08/31 13:37:19;;;;;;;12.25;8.90;;;;;;;;;;5092164;28;20119;-76
2022/08/31 13:39:46;;;;;;;11.30;9.15;;;;;;;;;;5092542;28;20035;-76
2022/08/31 13:42:41;;;;;;;12.93;8.90;;;;;;;;;;5092516;28;20036;-75
2022/08/31 13:45:29;;;;;;;13.95;8.13;;;;;;;;;;5081205;28;20400;-72
2022/08/31 13:48:15;;;;;;;11.48;8.48;;;;;;;;;;5096597;28;20055;-72
2022/08/31 13:50:54;;;;;;;12.32;8.82;;;;;;;;;;5096485;28;20020;-72
2022/08/31 13:53:38;;;;;;;11.30;8.43;;;;;;;;;;5096298;28;20020;-71
2022/08/31 13:59:23;;;;;;;12.93;8.63;;;;;;;;;;5096255;28;20081;-73
2022/08/31 14:02:04;;;;;;;17.83;9.45;;;;;;;;;;5096361;28;20036;-73
2022/08/31 14:04:42;;;;;;;13.00;8.52;;;;;;;;;;5096414;28;20035;-73
2022/08/31 14:07:20;;;;;;;12.30;9.13;;;;;;;;;;5095843;28;20020;-72
2022/08/31 14:09:51;;;;;;;13.77;9.18;;;;;;;;;;5096513;28;20089;-73
2022/08/31 14:12:44;;;;;;;16.05;8.70;;;;;;;;;;5095821;28;20020;-73
2022/08/31 14:15:16;;;;;;;11.88;8.18;;;;;;;;;;5093771;28;20469;-72
2022/08/31 14:17:49;;;;;;;13.02;8.18;;;;;;;;;;5094808;28;20036;-72
2022/08/31 14:20:32;;;;;;;13.65;7.72;;;;;;;;;;5095821;28;20038;-72
2022/08/31 14:23:17;;;;;;;11.48;7.75;;;;;;;;;;5096113;28;20024;-73
2022/08/31 14:25:43;;;;;;;14.05;8.30;;;;;;;;;;5096037;28;20068;-73
2022/08/31 14:28:09;;;;;;;13.52;8.88;;;;;;;;;;5095554;28;20035;-73
2022/08/31 14:30:35;;;;;;;13.55;8.93;;;;;;;;;;5096066;28;20043;-72
2022/08/31 14:33:01;;;;;;;10.85;8.00;;;;;;;;;;5096027;28;20464;-73
2022/08/31 14:35:28;;;;;;;11.48;8.40;;;;;;;;;;5095338;28;20016;-72
2022/08/31 14:37:54;;;;;;;12.68;8.35;;;;;;;;;;5095757;28;20434;-73
2022/08/31 14:40:20;;;;;;;14.98;8.18;;;;;;;;;;5095260;28;20048;-73
2022/08/31 14:42:46;;;;;;;15.30;8.50;;;;;;;;;;5089148;28;20095;-74
2022/08/31 14:45:17;;;;;;;11.68;8.20;;;;;;;;;;5093310;28;20533;-74
2022/08/31 14:47:44;;;;;;;14.50;9.85;;;;;;;;;;5093041;28;20122;-74
2022/08/31 14:50:11;;;;;;;17.25;9.48;;;;;;;;;;5094726;28;20484;-72
2022/08/31 14:55:03;;;;;;;16.10;8.63;;;;;;;;;;5110339;27;20122;-74
2022/08/31 14:57:31;;;;;;;13.93;9.00;;;;;;;;;;5111003;28;20024;-73
2022/08/31 14:59:59;;;;;;;16.00;8.65;;;;;;;;;;5111667;28;20069;-73
2022/08/31 15:02:26;;;;;;;12.98;7.85;;;;;;;;;;5110702;28;20020;-73
2022/08/31 15:05:00;;;;;;;12.35;6.65;;;;;;;;;;5110794;28;20020;-73
2022/08/31 15:07:29;;;;;;;9.32;6.22;;;;;;;;;;5111110;28;20016;-73
2022/08/31 15:09:55;;;;;;;10.18;6.00;;;;;;;;;;5110365;28;20087;-72
2022/08/31 15:12:22;;;;;;;10.32;6.22;;;;;;;;;;5110821;28;20039;-72
2022/08/31 15:14:48;;;;;;;11.48;5.80;;;;;;;;;;5110772;28;20090;-73
2022/08/31 15:17:15;;;;;;;11.50;5.30;;;;;;;;;;5110456;28;20075;-74
2022/08/31 15:19:43;;;;;;;10.93;6.25;;;;;;;;;;5110902;28;20088;-73
2022/08/31 15:22:10;;;;;;;14.52;6.25;;;;;;;;;;5110747;28;20080;-73
2022/08/31 15:24:39;;;;;;;10.60;6.63;;;;;;;;;;5110242;28;20024;-73
2022/08/31 15:27:11;;;;;;;11.43;5.63;;;;;;;;;;5110845;28;20020;-73
2022/08/31 15:29:39;;;;;;;7.70;5.00;;;;;;;;;;5103122;28;20020;-73
2022/08/31 15:32:06;;;;;;;8.40;5.30;;;;;;;;;;5103835;28;20052;-73
2022/08/31 15:34:32;;;;;;;7.95;4.82;;;;;;;;;;5101537;28;20506;-74
2022/08/31 15:37:01;;;;;;;9.80;6.05;;;;;;;;;;5108418;28;20028;-74
2022/08/31 15:39:31;;;;;;;7.03;4.88;;;;;;;;;;5108331;28;20093;-74
2022/08/31 15:41:58;;;;;;;11.32;5.90;;;;;;;;;;5108492;28;20024;-74
2022/08/31 15:44:24;;;;;;;8.63;5.43;;;;;;;;;;5107930;28;20024;-75
2022/08/31 15:49:36;;;;;;;8.75;5.50;;;;;;;;;;5109499;28;20077;-75
2022/08/31 15:52:05;;;;;;;10.55;5.22;;;;;;;;;;5108355;28;20102;-74
2022/08/31 15:54:35;;;;;;;9.63;5.50;;;;;;;;;;5108745;28;20134;-74
2022/08/31 15:57:05;;;;;;;9.98;5.65;;;;;;;;;;5109357;28;20028;-75
2022/08/31 15:59:33;;;;;;;8.13;5.15;;;;;;;;;;5108912;28;20387;-75
2022/08/31 16:02:00;;;;;;;12.82;5.90;;;;;;;;;;5109194;28;20047;-75
2022/08/31 16:04:26;;;;;;;11.75;5.43;;;;;;;;;;5106422;28;20070;-75
2022/08/31 16:06:54;;;;;;;8.60;5.43;;;;;;;;;;5095392;28;20042;-75
2022/08/31 16:09:20;;;;;;;9.75;6.22;;;;;;;;;;5096204;28;20021;-74
2022/08/31 16:11:47;;;;;;;8.85;5.82;;;;;;;;;;5096457;28;20380;-74
2022/08/31 16:14:15;;;;;;;13.02;7.57;;;;;;;;;;5095504;28;20085;-74
2022/08/31 16:16:42;;;;;;;12.80;6.80;;;;;;;;;;5096356;28;20452;-74
2022/08/31 16:19:11;;;;;;;12.38;7.75;;;;;;;;;;5095566;28;20380;-74
2022/08/31 16:21:43;;;;;;;14.95;8.45;;;;;;;;;;5096082;28;20025;-73
2022/08/31 16:24:11;;;;;;;11.13;7.20;;;;;;;;;;5096612;28;20024;-74
2022/08/31 16:26:39;;;;;;;13.38;7.53;;;;;;;;;;5095505;28;20016;-73
2022/08/31 16:29:07;;;;;;;10.77;7.28;;;;;;;;;;5095900;28;20024;-73
2022/08/31 16:31:33;;;;;;;17.20;8.63;;;;;;;;;;5095742;28;20020;-74
2022/08/31 16:33:59;;;;;;;12.80;7.93;;;;;;;;;;5095426;28;20089;-73
2022/08/31 16:36:27;;;;;;;14.38;7.72;;;;;;;;;;5095665;28;20085;-74
2022/08/31 16:38:53;;;;;;;11.68;7.10;;;;;;;;;;5095600;28;20384;-74